General Aviation Weather

Text Reports

Enter one or more of the following location identifiers separated by a space:

Zip Code, Four-Character ICAO or Three-Character IATA airport codes.

METAR - Aviation Routine Weather Report
KOXI - Knox, Indiana
Updated at 7:55 AM GMT on April 27, 2015 (2:55 AM CDT):
METAR KOXI 270755Z AUTO 33008KT 10SM CLR 01/M02 A2999 RMK AO1
TAF - Terminal Area Forecast
KOXI - Knox, Indiana
Updated at 7:55 AM GMT on April 27, 2015 (2:55 AM CDT):
No TAF is currently available for this location.
Decoded:
No decoded TAF is available.
PIREP - Pilot Weather Report
KOXI - Knox, Indiana
Updated at 7:55 AM GMT on April 27, 2015 (2:55 AM CDT):
No PIREP is currently available for this location.
AIRMET - Airmens Meteorological Information
KOXI - Knox, Indiana
Updated at 7:55 AM GMT on April 27, 2015 (2:55 AM CDT):
No AIRMET is currently available for this location.
SIGMET - Significant Meteorological Information
KOXI - Knox, Indiana
Updated at 7:55 AM GMT on April 27, 2015 (2:55 AM CDT):
No SIGMET is currently available for this location.
NOTAM - Notice to Airmen
KOXI - Knox, Indiana
Updated at 7:55 AM GMT on April 27, 2015 (2:55 AM CDT):
No NOTAM is currently available for this location.
Forecast Area
KOXI - Knox, Indiana
Updated at 7:55 AM GMT on April 27, 2015 (2:55 AM CDT):
No NOTAM is currently available for this location.
Aviation Weather Maps